createdAt,value
2018-12-11T00:00:06.206Z,1014.7
2018-12-11T00:01:18.510Z,1014.7
2018-12-11T00:02:30.699Z,1014.7
2018-12-11T00:03:42.832Z,1014.7
2018-12-11T00:04:55.054Z,1014.8
2018-12-11T00:06:07.223Z,1014.7
2018-12-11T00:07:19.387Z,1014.8
2018-12-11T00:08:31.584Z,1014.8
2018-12-11T00:09:43.751Z,1014.7
2018-12-11T00:10:56.050Z,1014.7
2018-12-11T00:12:08.159Z,1014.7
2018-12-11T00:13:20.357Z,1014.7
2018-12-11T00:14:32.567Z,1014.7
2018-12-11T00:15:44.765Z,1014.7
2018-12-11T00:16:56.958Z,1014.7
2018-12-11T00:18:09.056Z,1014.6
2018-12-11T00:19:21.336Z,1014.7
2018-12-11T00:20:33.630Z,1014.7
2018-12-11T00:21:45.707Z,1014.7
2018-12-11T00:22:57.970Z,1014.6
2018-12-11T00:24:10.099Z,1014.6
2018-12-11T00:25:22.221Z,1014.6
2018-12-11T00:26:34.500Z,1014.6
2018-12-11T00:27:46.604Z,1014.6
2018-12-11T00:28:58.908Z,1014.6
2018-12-11T00:30:10.989Z,1014.6
2018-12-11T00:31:23.249Z,1014.6
2018-12-11T00:32:35.459Z,1014.7
2018-12-11T00:33:47.573Z,1014.6
2018-12-11T00:34:59.918Z,1014.6
2018-12-11T00:36:12.039Z,1014.7
2018-12-11T00:37:24.247Z,1014.7
2018-12-11T00:38:36.525Z,1014.7
2018-12-11T00:39:48.700Z,1014.7
2018-12-11T00:41:00.830Z,1014.7
2018-12-11T00:42:13.021Z,1014.6
2018-12-11T00:43:25.126Z,1014.6
2018-12-11T00:44:37.401Z,1014.7
2018-12-11T00:45:49.588Z,1014.6
2018-12-11T00:47:05.264Z,1014.6
2018-12-11T00:48:13.986Z,1014.6
2018-12-11T00:49:26.276Z,1014.6
2018-12-11T00:50:38.394Z,1014.6
2018-12-11T00:51:50.641Z,1014.6
2018-12-11T00:53:02.755Z,1014.6
2018-12-11T00:54:15.139Z,1014.5
2018-12-11T00:55:27.065Z,1014.6
2018-12-11T00:56:39.321Z,1014.6
2018-12-11T00:57:51.521Z,1014.6
2018-12-11T00:59:03.719Z,1014.6
2018-12-11T01:00:15.839Z,1014.6
2018-12-11T01:01:28.100Z,1014.6
2018-12-11T01:02:40.316Z,1014.6
2018-12-11T01:03:52.596Z,1014.6
2018-12-11T01:05:04.692Z,1014.7
2018-12-11T01:06:16.890Z,1014.6
2018-12-11T01:07:29.071Z,1014.7
2018-12-11T01:08:41.288Z,1014.7
2018-12-11T01:09:53.472Z,1014.7
2018-12-11T01:11:05.659Z,1014.7
2018-12-11T01:12:17.791Z,1014.8
2018-12-11T01:13:30.459Z,1014.7
2018-12-11T01:14:42.260Z,1014.7
2018-12-11T01:15:54.540Z,1014.7
2018-12-11T01:17:06.625Z,1014.7
2018-12-11T01:18:18.837Z,1014.7
2018-12-11T01:19:31.006Z,1014.7
2018-12-11T01:20:43.173Z,1014.7
2018-12-11T01:21:55.407Z,1014.8
2018-12-11T01:23:07.597Z,1014.7
2018-12-11T01:24:19.723Z,1014.7
2018-12-11T01:25:31.903Z,1014.7
2018-12-11T01:26:44.313Z,1014.7
2018-12-11T01:27:56.302Z,1014.8
2018-12-11T01:29:08.583Z,1014.7
2018-12-11T01:30:20.689Z,1014.7
2018-12-11T01:31:32.949Z,1014.8
2018-12-11T01:32:45.106Z,1014.7
2018-12-11T01:33:57.263Z,1014.7
2018-12-11T01:35:09.552Z,1014.7
2018-12-11T01:36:21.765Z,1014.7
2018-12-11T01:37:34.012Z,1014.7
2018-12-11T01:38:46.224Z,1014.8
2018-12-11T01:39:58.236Z,1014.7
2018-12-11T01:41:10.505Z,1014.7
2018-12-11T01:42:22.703Z,1014.7
2018-12-11T01:43:34.886Z,1014.7
2018-12-11T01:44:47.381Z,1014.7
2018-12-11T01:45:59.290Z,1014.7
2018-12-11T01:47:11.473Z,1014.6
2018-12-11T01:48:23.661Z,1014.6
2018-12-11T01:49:35.793Z,1014.6
2018-12-11T01:50:48.082Z,1014.6
2018-12-11T01:52:00.359Z,1014.7
2018-12-11T01:53:12.373Z,1014.7
2018-12-11T01:54:24.564Z,1014.6
2018-12-11T01:55:36.825Z,1014.7
2018-12-11T01:56:48.948Z,1014.7
2018-12-11T01:58:01.214Z,1014.7
2018-12-11T01:59:13.435Z,1014.7
2018-12-11T02:00:25.708Z,1014.7
2018-12-11T02:01:37.780Z,1014.6
2018-12-11T02:02:50.115Z,1014.6
2018-12-11T02:04:02.151Z,1014.6
2018-12-11T02:05:14.340Z,1014.7
2018-12-11T02:06:26.604Z,1014.6
2018-12-11T02:07:38.696Z,1014.6
2018-12-11T02:08:50.993Z,1014.5
2018-12-11T02:10:03.179Z,1014.6
2018-12-11T02:11:15.377Z,1014.6
2018-12-11T02:12:27.468Z,1014.7
2018-12-11T02:13:39.837Z,1014.7
2018-12-11T02:14:52.012Z,1014.6
2018-12-11T02:16:05.408Z,1014.6
2018-12-11T02:17:16.385Z,1014.6
2018-12-11T02:18:28.619Z,1014.6
2018-12-11T02:19:40.893Z,1014.6
2018-12-11T02:20:52.885Z,1014.6
2018-12-11T02:22:05.087Z,1014.6
2018-12-11T02:23:17.299Z,1014.6
2018-12-11T02:24:29.512Z,1014.6
2018-12-11T02:25:41.826Z,1014.7
2018-12-11T02:26:53.974Z,1014.7
2018-12-11T02:28:06.132Z,1014.6
2018-12-11T02:29:18.241Z,1014.7
2018-12-11T02:30:30.539Z,1014.7
2018-12-11T02:31:42.664Z,1014.6
2018-12-11T02:32:54.859Z,1014.6
2018-12-11T02:34:07.030Z,1014.7
2018-12-11T02:35:19.171Z,1014.7
2018-12-11T02:36:31.437Z,1014.6
2018-12-11T02:37:43.706Z,1014.6
2018-12-11T02:38:55.880Z,1014.5
2018-12-11T02:40:08.112Z,1014.6
2018-12-11T02:41:20.138Z,1014.6
2018-12-11T02:42:32.487Z,1014.6
2018-12-11T02:43:44.517Z,1014.6
2018-12-11T02:44:56.838Z,1014.6
2018-12-11T02:46:08.899Z,1014.6
2018-12-11T02:47:21.202Z,1014.6
2018-12-11T02:48:33.372Z,1014.6
2018-12-11T02:49:45.558Z,1014.6
2018-12-11T02:50:57.846Z,1014.7
2018-12-11T02:52:10.045Z,1014.6
2018-12-11T02:53:22.071Z,1014.7
2018-12-11T02:54:34.335Z,1014.6
2018-12-11T02:55:46.484Z,1014.6
2018-12-11T02:56:58.758Z,1014.6
2018-12-11T02:58:10.948Z,1014.7
2018-12-11T02:59:23.074Z,1014.6
2018-12-11T03:00:35.255Z,1014.6
2018-12-11T03:01:47.514Z,1014.6
2018-12-11T03:02:59.805Z,1014.6
2018-12-11T03:04:11.979Z,1014.6
2018-12-11T03:05:24.099Z,1014.6
2018-12-11T03:06:36.223Z,1014.6
2018-12-11T03:07:48.506Z,1014.6
2018-12-11T03:09:00.677Z,1014.6
2018-12-11T03:10:12.891Z,1014.6
2018-12-11T03:11:25.099Z,1014.6
2018-12-11T03:12:37.206Z,1014.6
2018-12-11T03:13:49.470Z,1014.7
2018-12-11T03:15:01.865Z,1014.7
2018-12-11T03:16:13.782Z,1014.7
2018-12-11T03:17:25.976Z,1014.7
2018-12-11T03:18:38.237Z,1014.7
2018-12-11T03:19:50.484Z,1014.6
2018-12-11T03:21:02.709Z,1014.6
2018-12-11T03:22:14.764Z,1014.6
2018-12-11T03:23:26.953Z,1014.6
2018-12-11T03:24:39.228Z,1014.6
2018-12-11T03:25:51.440Z,1014.6
2018-12-11T03:27:03.700Z,1014.5
2018-12-11T03:28:15.753Z,1014.5
2018-12-11T03:29:27.997Z,1014.5
2018-12-11T03:30:40.220Z,1014.5
2018-12-11T03:31:52.348Z,1014.5
2018-12-11T03:33:04.695Z,1014.5
2018-12-11T03:34:16.788Z,1014.5
2018-12-11T03:35:28.980Z,1014.4
2018-12-11T03:36:41.329Z,1014.5
2018-12-11T03:37:53.469Z,1014.4
2018-12-11T03:39:05.589Z,1014.4
2018-12-11T03:40:17.772Z,1014.4
2018-12-11T03:41:29.973Z,1014.5
2018-12-11T03:42:42.242Z,1014.5
2018-12-11T03:43:54.385Z,1014.4
2018-12-11T03:45:06.645Z,1014.5
2018-12-11T03:46:18.749Z,1014.5
2018-12-11T03:47:31.036Z,1014.5
2018-12-11T03:48:43.142Z,1014.4
2018-12-11T03:49:55.428Z,1014.4
2018-12-11T03:51:07.632Z,1014.5
2018-12-11T03:52:19.837Z,1014.5
2018-12-11T03:53:31.933Z,1014.5
2018-12-11T03:54:44.210Z,1014.5
2018-12-11T03:55:56.320Z,1014.5
2018-12-11T03:57:08.597Z,1014.4
2018-12-11T03:58:20.652Z,1014.4
2018-12-11T03:59:32.886Z,1014.4
2018-12-11T04:00:45.153Z,1014.5
2018-12-11T04:01:57.362Z,1014.5
2018-12-11T04:03:09.572Z,1014.5
2018-12-11T04:04:21.772Z,1014.5
2018-12-11T04:05:33.906Z,1014.5
2018-12-11T04:06:46.153Z,1014.5
2018-12-11T04:07:58.259Z,1014.5
2018-12-11T04:09:10.417Z,1014.4
2018-12-11T04:10:22.657Z,1014.5
2018-12-11T04:11:34.868Z,1014.5
2018-12-11T04:12:50.083Z,1014.2
2018-12-11T04:13:59.268Z,1014.5
2018-12-11T04:15:11.532Z,1014.5
2018-12-11T04:16:23.559Z,1014.5
2018-12-11T04:17:35.755Z,1014.5
2018-12-11T04:18:48.048Z,1014.4
2018-12-11T04:20:00.156Z,1014.5
2018-12-11T04:21:12.452Z,1014.5
2018-12-11T04:22:24.553Z,1014.5
2018-12-11T04:23:36.733Z,1014.5
2018-12-11T04:24:49.002Z,1014.5
2018-12-11T04:26:01.122Z,1014.6
2018-12-11T04:27:13.489Z,1014.6
2018-12-11T04:28:25.620Z,1014.5
2018-12-11T04:29:37.805Z,1014.5
2018-12-11T04:30:49.986Z,1014.5
2018-12-11T04:32:02.170Z,1014.5
2018-12-11T04:33:14.389Z,1014.6
2018-12-11T04:34:26.495Z,1014.6
2018-12-11T04:35:38.782Z,1014.6
2018-12-11T04:36:50.884Z,1014.6
2018-12-11T04:38:03.184Z,1014.5
2018-12-11T04:39:15.384Z,1014.5
2018-12-11T04:40:27.547Z,1014.5
2018-12-11T04:41:39.761Z,1014.6
2018-12-11T04:42:51.858Z,1014.5
2018-12-11T04:44:04.952Z,1014.6
2018-12-11T04:45:16.340Z,1014.6
2018-12-11T04:46:28.542Z,1014.6
2018-12-11T04:47:40.778Z,1014.5
2018-12-11T04:48:52.841Z,1014.6
2018-12-11T04:50:05.118Z,1014.6
2018-12-11T04:51:17.400Z,1014.6
2018-12-11T04:52:29.505Z,1014.5
2018-12-11T04:53:41.620Z,1014.6
2018-12-11T04:54:53.890Z,1014.5
2018-12-11T04:56:06.088Z,1014.5
2018-12-11T04:57:18.281Z,1014.6
2018-12-11T04:58:30.474Z,1014.5
2018-12-11T04:59:42.600Z,1014.6
2018-12-11T05:00:54.867Z,1014.6
2018-12-11T05:02:07.065Z,1014.6
2018-12-11T05:03:19.271Z,1014.6
2018-12-11T05:04:31.374Z,1014.7
2018-12-11T05:05:43.665Z,1014.7
2018-12-11T05:06:55.770Z,1014.7
2018-12-11T05:08:07.977Z,1014.6
2018-12-11T05:09:20.198Z,1014.7
2018-12-11T05:10:32.374Z,1014.7
2018-12-11T05:11:44.577Z,1014.6
2018-12-11T05:12:56.848Z,1014.6
2018-12-11T05:14:09.121Z,1014.6
2018-12-11T05:15:21.337Z,1014.6
2018-12-11T05:16:33.402Z,1014.6
2018-12-11T05:17:45.551Z,1014.6
2018-12-11T05:18:57.793Z,1014.6
2018-12-11T05:20:09.914Z,1014.6
2018-12-11T05:21:22.227Z,1014.6
2018-12-11T05:22:34.379Z,1014.5
2018-12-11T05:23:46.580Z,1014.5
2018-12-11T05:24:58.783Z,1014.5
2018-12-11T05:26:10.969Z,1014.5
2018-12-11T05:27:23.182Z,1014.5
2018-12-11T05:28:35.451Z,1014.5
2018-12-11T05:29:47.495Z,1014.5
2018-12-11T05:30:59.747Z,1014.6
2018-12-11T05:32:11.983Z,1014.6
2018-12-11T05:33:24.241Z,1014.6
2018-12-11T05:34:36.268Z,1014.7
2018-12-11T05:35:48.647Z,1014.6
2018-12-11T05:37:00.764Z,1014.6
2018-12-11T05:38:12.917Z,1014.6
2018-12-11T05:39:25.143Z,1014.6
2018-12-11T05:40:37.241Z,1014.6
2018-12-11T05:41:49.448Z,1014.6
2018-12-11T05:43:01.762Z,1014.5
2018-12-11T05:44:13.924Z,1014.6
2018-12-11T05:45:26.143Z,1014.6
2018-12-11T05:46:38.226Z,1014.6
2018-12-11T05:47:50.445Z,1014.5
2018-12-11T05:49:02.706Z,1014.5
2018-12-11T05:50:14.960Z,1014.5
2018-12-11T05:51:27.188Z,1014.5
2018-12-11T05:52:39.307Z,1014.5
2018-12-11T05:53:51.481Z,1014.5
2018-12-11T05:55:03.772Z,1014.5
2018-12-11T05:56:15.780Z,1014.4
2018-12-11T05:57:28.165Z,1014.4
2018-12-11T05:58:40.299Z,1014.5
2018-12-11T05:59:52.537Z,1014.5
2018-12-11T06:01:04.561Z,1014.5
2018-12-11T06:02:16.931Z,1014.4
2018-12-11T06:03:29.123Z,1014.5
2018-12-11T06:04:41.319Z,1014.4
2018-12-11T06:05:53.359Z,1014.5
2018-12-11T06:07:05.542Z,1014.5
2018-12-11T06:08:17.739Z,1014.5
2018-12-11T06:09:29.931Z,1014.5
2018-12-11T06:10:42.240Z,1014.4
2018-12-11T06:11:54.503Z,1014.5
2018-12-11T06:13:06.538Z,1014.5
2018-12-11T06:14:18.793Z,1014.6
2018-12-11T06:15:32.345Z,1014.5
2018-12-11T06:16:43.187Z,1014.6
2018-12-11T06:17:55.389Z,1014.6
2018-12-11T06:19:07.581Z,1014.5
2018-12-11T06:20:19.701Z,1014.6
2018-12-11T06:21:31.967Z,1014.5
2018-12-11T06:22:44.269Z,1014.6
2018-12-11T06:23:56.445Z,1014.6
2018-12-11T06:25:08.485Z,1014.6
2018-12-11T06:26:20.851Z,1014.6
2018-12-11T06:27:33.037Z,1014.6
2018-12-11T06:28:45.144Z,1014.6
2018-12-11T06:29:57.300Z,1014.7
2018-12-11T06:31:09.525Z,1014.6
2018-12-11T06:32:21.736Z,1014.7
2018-12-11T06:33:34.037Z,1014.6
2018-12-11T06:34:46.112Z,1014.7
2018-12-11T06:35:58.322Z,1014.7
2018-12-11T06:37:10.443Z,1014.7
2018-12-11T06:38:22.640Z,1014.7
2018-12-11T06:39:34.920Z,1014.7
2018-12-11T06:40:50.136Z,1014.7
2018-12-11T06:41:59.303Z,1014.7
2018-12-11T06:43:11.504Z,1014.7
2018-12-11T06:44:23.682Z,1014.8
2018-12-11T06:45:35.805Z,1014.7
2018-12-11T06:46:48.026Z,1014.7
2018-12-11T06:48:00.290Z,1014.7
2018-12-11T06:49:12.478Z,1014.7
2018-12-11T06:50:24.589Z,1014.6
2018-12-11T06:51:36.946Z,1014.6
2018-12-11T06:52:49.044Z,1014.6
2018-12-11T06:54:01.170Z,1014.6
2018-12-11T06:55:13.453Z,1014.6
2018-12-11T06:56:25.777Z,1014.6
2018-12-11T06:57:37.845Z,1014.6
2018-12-11T06:58:50.041Z,1014.6
2018-12-11T07:00:02.423Z,1014.6
2018-12-11T07:01:14.433Z,1014.6
2018-12-11T07:02:26.783Z,1014.5
2018-12-11T07:03:38.850Z,1014.5
2018-12-11T07:04:51.048Z,1014.6
2018-12-11T07:06:03.226Z,1014.6
2018-12-11T07:07:15.396Z,1014.5
2018-12-11T07:08:27.610Z,1014.6
2018-12-11T07:09:39.872Z,1014.6
2018-12-11T07:10:52.027Z,1014.5
2018-12-11T07:12:05.108Z,1014.5
2018-12-11T07:13:16.315Z,1014.5
2018-12-11T07:14:28.574Z,1014.6
2018-12-11T07:15:40.854Z,1014.5
2018-12-11T07:16:53.055Z,1014.6
2018-12-11T07:18:05.077Z,1014.7
2018-12-11T07:19:17.280Z,1014.7
2018-12-11T07:20:29.548Z,1014.7
2018-12-11T07:21:41.726Z,1014.7
2018-12-11T07:22:53.870Z,1014.7
2018-12-11T07:24:06.060Z,1014.6
2018-12-11T07:25:18.258Z,1014.6
2018-12-11T07:26:30.534Z,1014.7
2018-12-11T07:27:42.828Z,1014.7
2018-12-11T07:28:54.936Z,1014.7
2018-12-11T07:30:07.126Z,1014.8
2018-12-11T07:31:19.326Z,1014.7
2018-12-11T07:32:31.520Z,1014.7
2018-12-11T07:33:43.688Z,1014.7
2018-12-11T07:34:55.871Z,1014.6
2018-12-11T07:36:08.109Z,1014.7
2018-12-11T07:37:20.297Z,1014.7
2018-12-11T07:38:32.585Z,1014.8
2018-12-11T07:39:44.702Z,1014.7
2018-12-11T07:40:56.842Z,1014.7
2018-12-11T07:42:09.068Z,1014.7
2018-12-11T07:43:21.273Z,1014.7
2018-12-11T07:44:33.441Z,1014.6
2018-12-11T07:45:47.258Z,1014.8
2018-12-11T07:46:57.868Z,1014.8
2018-12-11T07:48:10.058Z,1014.8
2018-12-11T07:49:22.245Z,1014.8
2018-12-11T07:50:34.511Z,1014.8
2018-12-11T07:51:46.736Z,1014.8
2018-12-11T07:52:58.843Z,1014.8
2018-12-11T07:54:11.206Z,1014.8
2018-12-11T07:55:23.157Z,1014.8
2018-12-11T07:56:35.426Z,1014.8
2018-12-11T07:57:47.540Z,1014.8
2018-12-11T07:58:59.818Z,1014.8
2018-12-11T08:00:12.353Z,1014.8
2018-12-11T08:01:24.217Z,1014.8
2018-12-11T08:02:36.398Z,1014.8
2018-12-11T08:03:48.624Z,1014.9
2018-12-11T08:05:00.800Z,1014.9
2018-12-11T08:06:12.914Z,1014.8
2018-12-11T08:07:25.232Z,1014.8
2018-12-11T08:08:37.540Z,1014.8
2018-12-11T08:09:49.594Z,1014.7
2018-12-11T08:11:01.774Z,1014.7
2018-12-11T08:12:14.069Z,1014.6
2018-12-11T08:13:26.093Z,1014.7
2018-12-11T08:14:38.356Z,1014.8
2018-12-11T08:15:50.581Z,1014.7
2018-12-11T08:17:02.736Z,1014.8
2018-12-11T08:18:14.996Z,1014.8
2018-12-11T08:19:27.091Z,1014.9
2018-12-11T08:20:39.285Z,1014.8
2018-12-11T08:21:51.451Z,1014.8
2018-12-11T08:23:03.647Z,1014.9
2018-12-11T08:24:15.847Z,1014.9
2018-12-11T08:25:28.046Z,1014.9
2018-12-11T08:26:40.236Z,1014.9
2018-12-11T08:27:52.532Z,1014.8
2018-12-11T08:29:04.730Z,1014.9
2018-12-11T08:30:16.910Z,1014.9
2018-12-11T08:31:29.052Z,1014.9
2018-12-11T08:32:41.290Z,1014.9
2018-12-11T08:33:53.420Z,1014.9
2018-12-11T08:35:06.214Z,1014.9
2018-12-11T08:36:17.966Z,1014.9
2018-12-11T08:37:29.998Z,1015
2018-12-11T08:38:42.272Z,1014.9
2018-12-11T08:39:54.555Z,1015
2018-12-11T08:41:06.640Z,1015
2018-12-11T08:42:18.784Z,1015
2018-12-11T08:43:31.148Z,1015
2018-12-11T08:44:43.284Z,1015
2018-12-11T08:45:55.373Z,1014.9
2018-12-11T08:47:07.586Z,1015
2018-12-11T08:48:19.835Z,1015.1
2018-12-11T08:49:32.041Z,1015.1
2018-12-11T08:50:44.231Z,1015.1
2018-12-11T08:51:56.437Z,1015.1
2018-12-11T08:53:08.644Z,1015.1
2018-12-11T08:54:20.816Z,1015.1
2018-12-11T08:55:33.003Z,1015
2018-12-11T08:56:45.206Z,1015.1
2018-12-11T08:57:57.330Z,1015
2018-12-11T08:59:09.629Z,1015.1
2018-12-11T09:00:21.851Z,1015
2018-12-11T09:01:33.914Z,1015
2018-12-11T09:02:46.111Z,1015.1
2018-12-11T09:03:58.491Z,1015
2018-12-11T09:05:10.768Z,1015.1
2018-12-11T09:06:22.767Z,1015.1
2018-12-11T09:07:34.930Z,1015.1
2018-12-11T09:08:47.169Z,1015.1
2018-12-11T09:09:59.443Z,1015.2
2018-12-11T09:11:11.571Z,1015.3
2018-12-11T09:12:26.307Z,1015.3
2018-12-11T09:13:35.957Z,1015.3
2018-12-11T09:14:48.067Z,1015.3
2018-12-11T09:16:00.434Z,1015.2
2018-12-11T09:17:12.622Z,1015.3
2018-12-11T09:18:24.656Z,1015.1
2018-12-11T09:19:36.936Z,1015.1
2018-12-11T09:20:49.146Z,1015.1
2018-12-11T09:22:01.236Z,1015.1
2018-12-11T09:23:13.513Z,1015.1
2018-12-11T09:24:25.750Z,1015.1
2018-12-11T09:25:37.902Z,1015.1
2018-12-11T09:26:50.178Z,1015.1
2018-12-11T09:28:02.310Z,1015.1
2018-12-11T09:29:14.603Z,1015.1
2018-12-11T09:30:26.606Z,1015.1
2018-12-11T09:31:38.884Z,1015.1
2018-12-11T09:32:50.993Z,1015.1
2018-12-11T09:34:03.361Z,1015
2018-12-11T09:35:15.458Z,1015
2018-12-11T09:36:27.673Z,1015
2018-12-11T09:37:39.778Z,1015
2018-12-11T09:38:52.069Z,1015.1
2018-12-11T09:40:04.327Z,1015.1
2018-12-11T09:41:16.518Z,1015.1
2018-12-11T09:42:28.563Z,1015.1
2018-12-11T09:43:40.787Z,1015.1
2018-12-11T09:44:53.021Z,1015.1
2018-12-11T09:46:05.313Z,1015.2
2018-12-11T09:47:17.448Z,1015.2
2018-12-11T09:48:29.713Z,1015.2
2018-12-11T09:49:41.877Z,1015.2
2018-12-11T09:50:54.088Z,1015.2
2018-12-11T09:52:06.293Z,1015.2
2018-12-11T09:53:18.484Z,1015.2
2018-12-11T09:54:30.644Z,1015.2
2018-12-11T09:55:44.121Z,1015.2
2018-12-11T09:56:55.049Z,1015.2
2018-12-11T09:58:07.173Z,1015.3
2018-12-11T09:59:19.314Z,1015.3
2018-12-11T10:00:31.504Z,1015.3
2018-12-11T10:01:43.686Z,1015.3
2018-12-11T10:02:55.967Z,1015.3
2018-12-11T10:04:08.295Z,1015.3
2018-12-11T10:05:20.361Z,1015.2
2018-12-11T10:06:32.494Z,1015.2
2018-12-11T10:07:44.732Z,1015.2
2018-12-11T10:08:57.076Z,1015.3
2018-12-11T10:10:09.148Z,1015.4
2018-12-11T10:11:21.350Z,1015.3
2018-12-11T10:12:33.541Z,1015.4
2018-12-11T10:13:45.657Z,1015.4
2018-12-11T10:14:57.968Z,1015.4
2018-12-11T10:16:10.201Z,1015.4
2018-12-11T10:17:23.128Z,1015.4
2018-12-11T10:18:34.522Z,1015.3
2018-12-11T10:19:46.725Z,1015.3
2018-12-11T10:20:58.884Z,1015.3
2018-12-11T10:22:11.084Z,1015.3
2018-12-11T10:23:23.282Z,1015.3
2018-12-11T10:24:35.605Z,1015.3
2018-12-11T10:25:47.685Z,1015.3
2018-12-11T10:26:59.877Z,1015.2
2018-12-11T10:28:12.168Z,1015.3
2018-12-11T10:29:24.189Z,1015.3
2018-12-11T10:30:36.551Z,1015.3
2018-12-11T10:31:48.729Z,1015.4
2018-12-11T10:33:00.842Z,1015.3
2018-12-11T10:34:12.981Z,1015.3
2018-12-11T10:35:25.238Z,1015.3
2018-12-11T10:36:37.441Z,1015.4
2018-12-11T10:37:49.626Z,1015.4
2018-12-11T10:39:01.908Z,1015.4
2018-12-11T10:40:14.163Z,1015.3
2018-12-11T10:41:26.145Z,1015.4
2018-12-11T10:42:38.371Z,1015.3
2018-12-11T10:43:50.599Z,1015.4
2018-12-11T10:45:02.788Z,1015.3
2018-12-11T10:46:15.065Z,1015.3
2018-12-11T10:47:27.117Z,1015.3
2018-12-11T10:48:39.409Z,1015.3
2018-12-11T10:49:51.586Z,1015.3
2018-12-11T10:51:03.699Z,1015.3
2018-12-11T10:52:16.105Z,1015.3
2018-12-11T10:53:28.173Z,1015.4
2018-12-11T10:54:40.394Z,1015.4
2018-12-11T10:55:52.568Z,1015.4
2018-12-11T10:57:04.707Z,1015.3
2018-12-11T10:59:29.331Z,1015.2
2018-12-11T11:00:41.352Z,1015.3
2018-12-11T11:01:53.540Z,1015.3
2018-12-11T11:03:05.665Z,1015.3
2018-12-11T11:04:17.946Z,1015.3
2018-12-11T11:05:30.117Z,1015.2
2018-12-11T11:06:42.329Z,1015.2
2018-12-11T11:07:54.500Z,1015.2
2018-12-11T11:09:06.712Z,1015.3
2018-12-11T11:10:18.923Z,1015.3
2018-12-11T11:11:31.019Z,1015.2
2018-12-11T11:12:43.238Z,1015.2
2018-12-11T11:15:07.712Z,1015.2
2018-12-11T11:16:20.206Z,1015.2
2018-12-11T11:17:32.116Z,1015.2
2018-12-11T11:18:44.285Z,1015.1
2018-12-11T11:19:56.476Z,1015.1
2018-12-11T11:21:08.595Z,1015.1
2018-12-11T11:22:20.951Z,1015.1
2018-12-11T11:23:32.979Z,1015
2018-12-11T11:24:45.252Z,1015.1
2018-12-11T11:25:57.398Z,1015.1
2018-12-11T11:27:09.569Z,1015.1
2018-12-11T11:28:21.919Z,1015.1
2018-12-11T11:29:34.136Z,1015
2018-12-11T11:30:46.216Z,1015.2
2018-12-11T11:31:58.355Z,1015.2
2018-12-11T11:33:10.655Z,1015.1
2018-12-11T11:34:23.288Z,1015.1
2018-12-11T11:35:35.023Z,1015
2018-12-11T11:36:47.231Z,1015.1
2018-12-11T11:37:59.325Z,1015
2018-12-11T11:39:11.589Z,1015
2018-12-11T11:40:23.803Z,1015
2018-12-11T11:41:35.984Z,1015
2018-12-11T11:42:50.913Z,1015
2018-12-11T11:44:00.396Z,1015.1
2018-12-11T11:45:12.597Z,1015.1
2018-12-11T11:46:24.803Z,1015
2018-12-11T11:47:36.881Z,1015.1
2018-12-11T11:48:49.249Z,1015.1
2018-12-11T11:50:01.276Z,1015
2018-12-11T11:51:13.538Z,1015.1
2018-12-11T11:52:25.853Z,1015.1
2018-12-11T11:53:37.936Z,1015
2018-12-11T11:54:50.131Z,1015.1
2018-12-11T11:56:05.188Z,1015
2018-12-11T11:57:14.450Z,1015
2018-12-11T11:58:26.812Z,1015
2018-12-11T11:59:38.876Z,1014.9
2018-12-11T12:00:51.128Z,1014.9
2018-12-11T12:02:03.302Z,1014.8
2018-12-11T12:03:15.465Z,1014.9
2018-12-11T12:04:27.709Z,1014.9
2018-12-11T12:05:39.914Z,1014.9
2018-12-11T12:06:52.013Z,1015
2018-12-11T12:08:04.338Z,1015
2018-12-11T12:09:16.402Z,1014.9
2018-12-11T12:10:28.615Z,1014.9
2018-12-11T12:11:40.791Z,1014.9
2018-12-11T12:12:53.085Z,1014.9
2018-12-11T12:14:05.183Z,1015
2018-12-11T12:15:17.460Z,1014.9
2018-12-11T12:16:29.663Z,1014.9
2018-12-11T12:17:41.783Z,1015
2018-12-11T12:18:53.952Z,1014.9
2018-12-11T12:20:06.254Z,1014.9
2018-12-11T12:21:18.415Z,1015
2018-12-11T12:22:30.568Z,1014.9
2018-12-11T12:23:42.734Z,1014.8
2018-12-11T12:24:54.993Z,1014.9
2018-12-11T12:26:07.137Z,1014.9
2018-12-11T12:27:19.315Z,1014.9
2018-12-11T12:28:31.690Z,1015
2018-12-11T12:29:43.736Z,1014.9
2018-12-11T12:30:55.944Z,1014.9
2018-12-11T12:32:08.200Z,1014.9
2018-12-11T12:33:20.316Z,1014.9
2018-12-11T12:34:32.573Z,1014.9
2018-12-11T12:35:44.666Z,1014.7
2018-12-11T12:36:56.969Z,1014.9
2018-12-11T12:38:09.134Z,1014.9
2018-12-11T12:39:21.250Z,1014.8
2018-12-11T12:40:33.619Z,1014.9
2018-12-11T12:41:45.761Z,1014.8
2018-12-11T12:42:57.895Z,1014.9
2018-12-11T12:44:10.025Z,1014.9
2018-12-11T12:45:22.219Z,1014.9
2018-12-11T12:46:34.585Z,1014.9
2018-12-11T12:47:46.689Z,1014.8
2018-12-11T12:48:58.876Z,1014.8
2018-12-11T12:50:11.082Z,1014.9
2018-12-11T12:51:23.259Z,1014.9
2018-12-11T12:52:35.561Z,1014.9
2018-12-11T12:53:47.647Z,1014.9
2018-12-11T12:54:59.851Z,1014.9
2018-12-11T12:56:12.999Z,1014.9
2018-12-11T12:57:24.252Z,1014.9
2018-12-11T12:58:36.445Z,1014.8
2018-12-11T12:59:48.680Z,1014.9
2018-12-11T13:01:00.849Z,1014.8
2018-12-11T13:02:12.929Z,1014.9
2018-12-11T13:03:25.208Z,1014.9
2018-12-11T13:04:37.541Z,1014.9
2018-12-11T13:05:49.512Z,1014.9
2018-12-11T13:07:01.796Z,1014.9
2018-12-11T13:08:13.914Z,1014.9
2018-12-11T13:09:26.221Z,1015
2018-12-11T13:10:38.433Z,1015
2018-12-11T13:11:50.569Z,1015
2018-12-11T13:13:02.677Z,1014.9
2018-12-11T13:14:14.909Z,1014.9
2018-12-11T13:15:27.083Z,1015
2018-12-11T13:16:39.417Z,1014.9
2018-12-11T13:17:51.534Z,1014.9
2018-12-11T13:19:03.656Z,1015
2018-12-11T13:20:16.007Z,1015
2018-12-11T13:21:28.214Z,1015
2018-12-11T13:22:40.335Z,1015.1
2018-12-11T13:23:52.417Z,1015
2018-12-11T13:25:04.695Z,1014.9
2018-12-11T13:26:16.879Z,1014.9
2018-12-11T13:27:29.084Z,1014.9
2018-12-11T13:28:41.363Z,1014.8
2018-12-11T13:29:53.389Z,1014.8
2018-12-11T13:31:05.626Z,1014.8
2018-12-11T13:32:17.779Z,1014.8
2018-12-11T13:33:30.043Z,1014.8
2018-12-11T13:34:42.189Z,1014.8
2018-12-11T13:35:54.547Z,1014.8
2018-12-11T13:37:06.578Z,1014.7
2018-12-11T13:38:18.818Z,1014.7
2018-12-11T13:39:31.021Z,1014.7
2018-12-11T13:40:43.309Z,1014.7
2018-12-11T13:41:55.482Z,1014.7
2018-12-11T13:43:07.622Z,1014.7
2018-12-11T13:44:19.786Z,1014.8
2018-12-11T13:45:31.995Z,1014.7
2018-12-11T13:46:44.131Z,1014.7
2018-12-11T13:47:56.295Z,1014.7
2018-12-11T13:49:08.486Z,1014.7
2018-12-11T13:50:20.755Z,1014.7
2018-12-11T13:51:32.988Z,1014.7
2018-12-11T13:52:45.250Z,1014.7
2018-12-11T13:53:57.272Z,1014.7
2018-12-11T13:55:09.538Z,1014.7
2018-12-11T13:56:21.745Z,1014.7
2018-12-11T13:57:33.918Z,1014.7
2018-12-11T13:58:46.056Z,1014.7
2018-12-11T13:59:58.234Z,1014.7
2018-12-11T14:01:14.193Z,1014.7
2018-12-11T14:02:23.677Z,1014.8
2018-12-11T14:03:34.941Z,1014.7
2018-12-11T14:04:47.187Z,1014.7
2018-12-11T14:05:59.291Z,1014.8
2018-12-11T14:07:11.464Z,1014.8
2018-12-11T14:08:23.586Z,1014.7
2018-12-11T14:09:35.788Z,1014.7
2018-12-11T14:10:48.076Z,1014.7
2018-12-11T14:12:00.246Z,1014.7
2018-12-11T14:13:12.384Z,1014.8
2018-12-11T14:14:24.672Z,1014.8
2018-12-11T14:15:36.783Z,1014.8
2018-12-11T14:16:49.112Z,1014.8
2018-12-11T14:18:01.398Z,1014.8
2018-12-11T14:19:13.414Z,1014.7
2018-12-11T14:20:25.704Z,1014.7
2018-12-11T14:21:37.793Z,1014.7
2018-12-11T14:22:50.056Z,1014.7
2018-12-11T14:24:02.234Z,1014.7
2018-12-11T14:25:14.377Z,1014.8
2018-12-11T14:26:26.572Z,1014.7
2018-12-11T14:27:38.701Z,1014.7
2018-12-11T14:28:51.053Z,1014.7
2018-12-11T14:30:03.187Z,1014.7
2018-12-11T14:31:15.361Z,1014.8
2018-12-11T14:32:27.542Z,1014.8
2018-12-11T14:33:39.691Z,1014.7
2018-12-11T14:34:51.948Z,1014.7
2018-12-11T14:36:04.047Z,1014.7
2018-12-11T14:37:16.318Z,1014.6
2018-12-11T14:38:28.498Z,1014.7
2018-12-11T14:39:40.769Z,1014.7
2018-12-11T14:40:52.985Z,1014.7
2018-12-11T14:42:05.090Z,1014.7
2018-12-11T14:43:17.215Z,1014.7
2018-12-11T14:44:29.552Z,1014.7
2018-12-11T14:45:41.662Z,1014.7
2018-12-11T14:46:53.785Z,1014.6
2018-12-11T14:48:06.078Z,1014.7
2018-12-11T14:49:18.359Z,1014.6
2018-12-11T14:50:30.451Z,1014.6
2018-12-11T14:51:42.633Z,1014.6
2018-12-11T14:52:54.936Z,1014.6
2018-12-11T14:54:07.126Z,1014.6
2018-12-11T14:55:19.219Z,1014.6
2018-12-11T14:56:31.517Z,1014.6
2018-12-11T14:57:43.535Z,1014.6
2018-12-11T14:58:55.895Z,1014.5
2018-12-11T15:00:07.960Z,1014.5
2018-12-11T15:01:20.191Z,1014.6
2018-12-11T15:02:32.314Z,1014.6
2018-12-11T15:03:44.569Z,1014.6
2018-12-11T15:04:57.006Z,1014.6
2018-12-11T15:06:08.971Z,1014.6